createdAt,value
2023-04-15T00:00:09.076Z,1329.00
2023-04-15T00:01:09.043Z,1324.00
2023-04-15T00:02:09.036Z,1325.00
2023-04-15T00:03:09.154Z,1322.00
2023-04-15T00:04:08.989Z,1322.00
2023-04-15T00:05:08.911Z,1324.00
2023-04-15T00:06:08.890Z,1320.00
2023-04-15T00:07:08.835Z,1318.00
2023-04-15T00:08:08.835Z,1314.00
2023-04-15T00:09:08.773Z,1314.00
2023-04-15T00:10:08.758Z,1313.00
2023-04-15T00:11:08.707Z,1309.00
2023-04-15T00:12:08.660Z,1307.00
2023-04-15T00:13:08.626Z,1307.00
2023-04-15T00:14:08.581Z,1309.00
2023-04-15T00:15:08.550Z,1310.00
2023-04-15T00:16:08.522Z,1311.00
2023-04-15T00:17:08.518Z,1311.00
2023-04-15T00:18:08.491Z,1310.00
2023-04-15T00:19:08.633Z,1305.00
2023-04-15T00:20:08.491Z,1307.00
2023-04-15T00:21:08.523Z,1304.00
2023-04-15T00:22:08.459Z,1303.00
2023-04-15T00:23:08.491Z,1302.00
2023-04-15T00:24:08.459Z,1303.00
2023-04-15T00:25:08.462Z,1301.00
2023-04-15T00:26:08.452Z,1301.00
2023-04-15T00:27:08.427Z,1299.00
2023-04-15T00:28:08.425Z,1297.00
2023-04-15T00:29:08.402Z,1293.00
2023-04-15T00:30:08.406Z,1296.00
2023-04-15T00:31:08.414Z,1297.00
2023-04-15T00:32:08.370Z,1298.00
2023-04-15T00:33:08.361Z,1297.00
2023-04-15T00:34:08.357Z,1297.00
2023-04-15T00:35:08.348Z,1295.00
2023-04-15T00:36:08.340Z,1295.00
2023-04-15T00:37:08.318Z,1293.00
2023-04-15T00:38:08.315Z,1294.00
2023-04-15T00:39:08.293Z,1292.00
2023-04-15T00:40:08.289Z,1294.00
2023-04-15T00:41:08.280Z,1295.00
2023-04-15T00:42:08.264Z,1295.00
2023-04-15T00:43:08.248Z,1295.00
2023-04-15T00:44:08.239Z,1295.00
2023-04-15T00:45:08.231Z,1293.00
2023-04-15T00:46:08.278Z,1289.00
2023-04-15T00:47:08.215Z,1285.00
2023-04-15T00:48:08.197Z,1285.00
2023-04-15T00:49:08.202Z,1288.00
2023-04-15T00:50:08.205Z,1289.00
2023-04-15T00:51:08.173Z,1285.00
2023-04-15T00:52:08.164Z,1282.00
2023-04-15T00:53:08.164Z,1274.00
2023-04-15T00:54:08.159Z,1274.00
2023-04-15T00:55:08.155Z,1277.00
2023-04-15T00:56:08.153Z,1277.00
2023-04-15T00:57:08.135Z,1275.00
2023-04-15T00:58:08.131Z,1273.00
2023-04-15T00:59:08.118Z,1273.00
2023-04-15T01:00:08.141Z,1270.00
2023-04-15T01:01:08.160Z,1273.00
2023-04-15T01:02:08.319Z,1276.00
2023-04-15T01:03:08.269Z,1276.00
2023-04-15T01:04:08.145Z,1277.00
2023-04-15T01:05:08.072Z,1275.00
2023-04-15T01:06:08.066Z,1270.00
2023-04-15T01:07:08.056Z,1267.00
2023-04-15T01:08:08.053Z,1261.00
2023-04-15T01:09:08.068Z,1260.00
2023-04-15T01:10:08.053Z,1260.00
2023-04-15T01:11:08.049Z,1262.00
2023-04-15T01:12:08.058Z,1261.00
2023-04-15T01:13:08.043Z,1262.00
2023-04-15T01:14:08.062Z,1259.00
2023-04-15T01:15:08.051Z,1259.00
2023-04-15T01:16:08.077Z,1260.00
2023-04-15T01:17:08.035Z,1256.00
2023-04-15T01:18:08.033Z,1254.00
2023-04-15T01:19:08.017Z,1251.00
2023-04-15T01:20:08.049Z,1251.00
2023-04-15T01:21:08.015Z,1253.00
2023-04-15T01:22:08.002Z,1252.00
2023-04-15T01:23:08.008Z,1251.00
2023-04-15T01:24:08.008Z,1249.00
2023-04-15T01:25:08.025Z,1248.00
2023-04-15T01:26:07.993Z,1244.00
2023-04-15T01:27:07.991Z,1245.00
2023-04-15T01:28:07.982Z,1242.00
2023-04-15T01:29:07.987Z,1243.00
2023-04-15T01:30:07.974Z,1243.00
2023-04-15T01:31:08.045Z,1240.00
2023-04-15T01:32:07.963Z,1240.00
2023-04-15T01:33:07.967Z,1239.00
2023-04-15T01:34:07.964Z,1240.00
2023-04-15T01:35:07.961Z,1238.00
2023-04-15T01:36:07.947Z,1233.00
2023-04-15T01:37:07.939Z,1234.00
2023-04-15T01:38:07.943Z,1232.00
2023-04-15T01:39:07.944Z,1233.00
2023-04-15T01:40:07.943Z,1231.00
2023-04-15T01:41:08.136Z,1231.00
2023-04-15T01:42:07.931Z,1229.00
2023-04-15T01:43:08.095Z,1226.00
2023-04-15T01:44:07.951Z,1227.00
2023-04-15T01:45:07.946Z,1226.00
2023-04-15T01:46:07.948Z,1232.00
2023-04-15T01:47:07.932Z,1230.00
2023-04-15T01:48:07.936Z,1226.00
2023-04-15T01:49:07.932Z,1222.00
2023-04-15T01:50:07.943Z,1220.00
2023-04-15T01:51:07.928Z,1218.00
2023-04-15T01:52:07.938Z,1216.00
2023-04-15T01:53:07.929Z,1212.00
2023-04-15T01:54:07.971Z,1215.00
2023-04-15T01:55:07.933Z,1216.00
2023-04-15T01:56:07.934Z,1219.00
2023-04-15T01:57:07.935Z,1222.00
2023-04-15T01:58:07.938Z,1221.00
2023-04-15T01:59:07.955Z,1218.00
2023-04-15T02:00:07.947Z,1219.00
2023-04-15T02:01:08.017Z,1220.00
2023-04-15T02:02:08.018Z,1214.00
2023-04-15T02:03:08.032Z,1217.00
2023-04-15T02:04:08.082Z,1218.00
2023-04-15T02:05:07.963Z,1217.00
2023-04-15T02:06:08.010Z,1219.00
2023-04-15T02:07:07.990Z,1216.00
2023-04-15T02:08:07.987Z,1215.00
2023-04-15T02:09:07.996Z,1213.00
2023-04-15T02:10:08.003Z,1209.00
2023-04-15T02:11:08.005Z,1211.00
2023-04-15T02:12:08.016Z,1212.00
2023-04-15T02:13:08.014Z,1211.00
2023-04-15T02:14:08.019Z,1215.00
2023-04-15T02:15:08.038Z,1213.00
2023-04-15T02:16:08.053Z,1208.00
2023-04-15T02:17:08.095Z,1203.00
2023-04-15T02:18:08.046Z,1204.00
2023-04-15T02:19:08.086Z,1206.00
2023-04-15T02:20:08.057Z,1205.00
2023-04-15T02:21:08.061Z,1203.00
2023-04-15T02:22:08.073Z,1201.00
2023-04-15T02:23:08.077Z,1199.00
2023-04-15T02:24:08.083Z,1203.00
2023-04-15T02:25:08.094Z,1202.00
2023-04-15T02:26:08.113Z,1204.00
2023-04-15T02:27:08.096Z,1208.00
2023-04-15T02:28:08.114Z,1205.00
2023-04-15T02:29:08.134Z,1205.00
2023-04-15T02:30:08.132Z,1199.00
2023-04-15T02:31:08.157Z,1196.00
2023-04-15T02:32:08.188Z,1195.00
2023-04-15T02:33:08.773Z,1192.00
2023-04-15T02:34:08.181Z,1189.00
2023-04-15T02:35:08.143Z,1189.00
2023-04-15T02:36:08.161Z,1187.00
2023-04-15T02:37:08.163Z,1188.00
2023-04-15T02:38:08.175Z,1190.00
2023-04-15T02:39:08.185Z,1186.00
2023-04-15T02:40:08.208Z,1183.00
2023-04-15T02:41:08.204Z,1183.00
2023-04-15T02:42:08.222Z,1183.00
2023-04-15T02:43:08.224Z,1185.00
2023-04-15T02:44:09.329Z,1183.00
2023-04-15T02:45:08.419Z,1184.00
2023-04-15T02:46:08.526Z,1181.00
2023-04-15T02:47:08.434Z,1178.00
2023-04-15T02:48:08.419Z,1177.00
2023-04-15T02:49:08.436Z,1175.00
2023-04-15T02:50:08.777Z,1175.00
2023-04-15T02:51:08.433Z,1173.00
2023-04-15T02:52:08.436Z,1172.00
2023-04-15T02:53:08.445Z,1172.00
2023-04-15T02:54:08.454Z,1171.00
2023-04-15T02:55:08.485Z,1173.00
2023-04-15T02:56:08.481Z,1167.00
2023-04-15T02:57:08.498Z,1160.00
2023-04-15T02:58:08.494Z,1159.00
2023-04-15T02:59:08.506Z,1156.00
2023-04-15T03:00:08.512Z,1156.00
2023-04-15T03:01:08.526Z,1154.00
2023-04-15T03:02:08.591Z,1155.00
2023-04-15T03:03:08.688Z,1151.00
2023-04-15T03:04:08.580Z,1151.00
2023-04-15T03:05:08.540Z,1149.00
2023-04-15T03:06:08.544Z,1149.00
2023-04-15T03:07:08.593Z,1152.00
2023-04-15T03:08:09.291Z,1152.00
2023-04-15T03:09:08.577Z,1152.00
2023-04-15T03:10:08.601Z,1151.00
2023-04-15T03:11:08.599Z,1150.00
2023-04-15T03:12:08.601Z,1151.00
2023-04-15T03:13:08.642Z,1154.00
2023-04-15T03:14:08.614Z,1149.00
2023-04-15T03:15:08.633Z,1150.00
2023-04-15T03:16:08.676Z,1152.00
2023-04-15T03:17:08.659Z,1153.00
2023-04-15T03:18:08.660Z,1153.00
2023-04-15T03:19:08.692Z,1152.00
2023-04-15T03:20:08.745Z,1152.00
2023-04-15T03:21:08.710Z,1151.00
2023-04-15T03:22:08.719Z,1152.00
2023-04-15T03:23:08.721Z,1154.00
2023-04-15T03:24:08.740Z,1151.00
2023-04-15T03:25:08.748Z,1148.00
2023-04-15T03:26:08.774Z,1142.00
2023-04-15T03:27:08.770Z,1141.00
2023-04-15T03:28:08.814Z,1137.00
2023-04-15T03:29:08.809Z,1134.00
2023-04-15T03:30:08.841Z,1135.00
2023-04-15T03:31:08.876Z,1133.00
2023-04-15T03:32:08.858Z,1132.00
2023-04-15T03:33:08.871Z,1135.00
2023-04-15T03:34:08.890Z,1134.00
2023-04-15T03:35:08.894Z,1135.00
2023-04-15T03:36:08.906Z,1134.00
2023-04-15T03:37:08.921Z,1132.00
2023-04-15T03:38:08.934Z,1133.00
2023-04-15T03:39:08.952Z,1133.00
2023-04-15T03:40:08.968Z,1133.00
2023-04-15T03:41:08.970Z,1133.00
2023-04-15T03:42:09.002Z,1134.00
2023-04-15T03:43:09.005Z,1131.00
2023-04-15T03:44:09.030Z,1131.00
2023-04-15T03:45:09.202Z,1131.00
2023-04-15T03:46:09.071Z,1128.00
2023-04-15T03:47:09.075Z,1129.00
2023-04-15T03:48:17.341Z,1129.00
2023-04-15T03:49:10.052Z,1126.00
2023-04-15T03:50:09.030Z,1125.00
2023-04-15T03:51:08.995Z,1122.00
2023-04-15T03:52:08.962Z,1122.00
2023-04-15T03:53:08.946Z,1123.00
2023-04-15T03:54:08.915Z,1123.00
2023-04-15T03:55:08.896Z,1125.00
2023-04-15T03:56:08.876Z,1123.00
2023-04-15T03:57:08.862Z,1123.00
2023-04-15T03:58:08.847Z,1123.00
2023-04-15T03:59:08.816Z,1123.00
2023-04-15T04:00:08.791Z,1124.00
2023-04-15T04:01:08.761Z,1123.00
2023-04-15T04:02:08.821Z,1123.00
2023-04-15T04:03:09.049Z,1121.00
2023-04-15T04:04:08.885Z,1120.00
2023-04-15T04:05:08.800Z,1122.00
2023-04-15T04:06:08.813Z,1118.00
2023-04-15T04:07:08.881Z,1114.00
2023-04-15T04:08:08.835Z,1114.00
2023-04-15T04:09:08.851Z,1113.00
2023-04-15T04:10:08.875Z,1110.00
2023-04-15T04:11:08.882Z,1109.00
2023-04-15T04:12:08.913Z,1109.00
2023-04-15T04:13:08.920Z,1109.00
2023-04-15T04:14:08.942Z,1107.00
2023-04-15T04:15:08.950Z,1107.00
2023-04-15T04:16:09.013Z,1106.00
2023-04-15T04:17:09.024Z,1106.00
2023-04-15T04:18:08.999Z,1110.00
2023-04-15T04:19:09.040Z,1109.00
2023-04-15T04:20:09.054Z,1108.00
2023-04-15T04:21:10.082Z,1103.00
2023-04-15T04:22:09.013Z,1102.00
2023-04-15T04:23:08.975Z,1103.00
2023-04-15T04:24:08.959Z,1102.00
2023-04-15T04:25:08.931Z,1102.00
2023-04-15T04:26:08.903Z,1099.00
2023-04-15T04:27:08.876Z,1099.00
2023-04-15T04:28:08.866Z,1098.00
2023-04-15T04:29:08.836Z,1098.00
2023-04-15T04:30:08.817Z,1096.00
2023-04-15T04:31:08.813Z,1094.00
2023-04-15T04:32:08.850Z,1093.00
2023-04-15T04:33:08.792Z,1094.00
2023-04-15T04:34:08.820Z,1096.00
2023-04-15T04:35:08.849Z,1096.00
2023-04-15T04:36:08.860Z,1095.00
2023-04-15T04:37:08.882Z,1096.00
2023-04-15T04:38:08.908Z,1094.00
2023-04-15T04:39:08.929Z,1090.00
2023-04-15T04:40:08.949Z,1090.00
2023-04-15T04:41:08.985Z,1089.00
2023-04-15T04:42:08.990Z,1085.00
2023-04-15T04:43:09.016Z,1084.00
2023-04-15T04:44:09.042Z,1087.00
2023-04-15T04:45:09.068Z,1087.00
2023-04-15T04:46:09.137Z,1082.00
2023-04-15T04:47:09.097Z,1082.00
2023-04-15T04:48:09.111Z,1082.00
2023-04-15T04:49:09.147Z,1080.00
2023-04-15T04:50:09.180Z,1079.00
2023-04-15T04:51:09.183Z,1077.00
2023-04-15T04:52:09.216Z,1076.00
2023-04-15T04:53:09.235Z,1077.00
2023-04-15T04:54:09.256Z,1074.00
2023-04-15T04:55:09.285Z,1073.00
2023-04-15T04:56:09.291Z,1073.00
2023-04-15T04:57:09.314Z,1075.00
2023-04-15T04:58:09.333Z,1076.00
2023-04-15T04:59:09.354Z,1077.00
2023-04-15T05:00:09.384Z,1077.00
2023-04-15T05:01:09.408Z,1074.00
2023-04-15T05:02:09.469Z,1070.00
2023-04-15T05:03:09.599Z,1066.00
2023-04-15T05:04:09.646Z,1062.00
2023-04-15T05:05:09.490Z,1060.00
2023-04-15T05:06:09.522Z,1058.00
2023-04-15T05:07:09.534Z,1060.00
2023-04-15T05:08:09.552Z,1067.00
2023-04-15T05:09:09.581Z,1064.00
2023-04-15T05:10:09.833Z,1064.00
2023-04-15T05:11:09.617Z,1065.00
2023-04-15T05:12:09.651Z,1067.00
2023-04-15T05:13:09.668Z,1066.00
2023-04-15T05:14:09.691Z,1065.00
2023-04-15T05:15:09.705Z,1067.00
2023-04-15T05:16:09.769Z,1065.00
2023-04-15T05:17:09.766Z,1063.00
2023-04-15T05:18:09.783Z,1061.00
2023-04-15T05:19:09.791Z,1058.00
2023-04-15T05:20:09.826Z,1058.00
2023-04-15T05:21:09.865Z,1055.00
2023-04-15T05:22:09.870Z,1057.00
2023-04-15T05:23:09.910Z,1055.00
2023-04-15T05:24:09.927Z,1056.00
2023-04-15T05:25:09.943Z,1056.00
2023-04-15T05:26:09.954Z,1057.00
2023-04-15T05:27:09.986Z,1053.00
2023-04-15T05:28:09.998Z,1052.00
2023-04-15T05:29:10.054Z,1052.00
2023-04-15T05:30:11.620Z,1053.00
2023-04-15T05:31:10.083Z,1052.00
2023-04-15T05:32:09.992Z,1048.00
2023-04-15T05:33:09.966Z,1046.00
2023-04-15T05:34:09.935Z,1046.00
2023-04-15T05:35:09.936Z,1048.00
2023-04-15T05:36:09.896Z,1048.00
2023-04-15T05:37:09.882Z,1046.00
2023-04-15T05:38:09.864Z,1050.00
2023-04-15T05:39:09.832Z,1047.00
2023-04-15T05:40:09.811Z,1046.00
2023-04-15T05:41:09.792Z,1044.00
2023-04-15T05:42:09.764Z,1040.00
2023-04-15T05:43:09.733Z,1039.00
2023-04-15T05:44:09.699Z,1037.00
2023-04-15T05:45:09.665Z,1041.00
2023-04-15T05:46:09.656Z,1040.00
2023-04-15T05:47:09.612Z,1040.00
2023-04-15T05:48:09.584Z,1040.00
2023-04-15T05:49:09.548Z,1040.00
2023-04-15T05:50:09.532Z,1039.00
2023-04-15T05:51:09.506Z,1036.00
2023-04-15T05:52:09.481Z,1035.00
2023-04-15T05:53:09.456Z,1038.00
2023-04-15T05:54:09.422Z,1037.00
2023-04-15T05:55:09.400Z,1034.00
2023-04-15T05:56:09.377Z,1033.00
2023-04-15T05:57:09.345Z,1032.00
2023-04-15T05:58:09.412Z,1032.00
2023-04-15T05:59:09.299Z,1033.00
2023-04-15T06:00:09.264Z,1034.00
2023-04-15T06:01:09.237Z,1037.00
2023-04-15T06:02:09.269Z,1036.00
2023-04-15T06:03:09.227Z,1035.00
2023-04-15T06:04:09.233Z,1032.00
2023-04-15T06:05:09.286Z,1032.00
2023-04-15T06:06:09.094Z,1031.00
2023-04-15T06:07:09.064Z,1029.00
2023-04-15T06:08:09.038Z,1027.00
2023-04-15T06:09:09.008Z,1026.00
2023-04-15T06:10:08.981Z,1027.00
2023-04-15T06:11:08.969Z,1026.00
2023-04-15T06:12:08.947Z,1026.00
2023-04-15T06:13:08.926Z,1020.00
2023-04-15T06:14:08.884Z,1019.00
2023-04-15T06:15:08.881Z,1019.00
2023-04-15T06:16:08.853Z,1022.00
2023-04-15T06:17:08.881Z,1023.00
2023-04-15T06:18:08.857Z,1019.00
2023-04-15T06:19:08.866Z,1016.00
2023-04-15T06:20:08.898Z,1019.00
2023-04-15T06:21:08.933Z,1015.00
2023-04-15T06:22:08.919Z,1019.00
2023-04-15T06:23:08.932Z,1018.00
2023-04-15T06:24:08.947Z,1023.00
2023-04-15T06:25:08.959Z,1020.00
2023-04-15T06:26:08.971Z,1019.00
2023-04-15T06:27:09.001Z,1016.00
2023-04-15T06:28:08.989Z,1014.00
2023-04-15T06:29:09.016Z,1008.00
2023-04-15T06:30:09.031Z,1007.00
2023-04-15T06:31:09.104Z,1008.00
2023-04-15T06:32:09.070Z,1007.00
2023-04-15T06:33:09.091Z,1008.00
2023-04-15T06:34:09.131Z,1007.00
2023-04-15T06:35:09.135Z,1004.00
2023-04-15T06:36:09.145Z,1003.00
2023-04-15T06:37:09.182Z,1004.00
2023-04-15T06:38:09.182Z,1006.00
2023-04-15T06:39:09.209Z,1005.00
2023-04-15T06:40:09.214Z,1001.00
2023-04-15T06:41:09.228Z,999.00
2023-04-15T06:42:09.239Z,994.00
2023-04-15T06:43:09.262Z,995.00
2023-04-15T06:44:09.275Z,993.00
2023-04-15T06:45:09.294Z,995.00
2023-04-15T06:46:09.404Z,994.00
2023-04-15T06:47:09.327Z,994.00
2023-04-15T06:48:09.342Z,996.00
2023-04-15T06:49:09.369Z,995.00
2023-04-15T06:50:09.424Z,997.00
2023-04-15T06:51:09.390Z,998.00
2023-04-15T06:52:09.422Z,994.00
2023-04-15T06:53:09.425Z,995.00
2023-04-15T06:54:09.446Z,997.00
2023-04-15T06:55:09.455Z,997.00
2023-04-15T06:56:09.468Z,992.00
2023-04-15T06:57:09.498Z,991.00
2023-04-15T06:58:09.501Z,990.00
2023-04-15T06:59:09.526Z,988.00
2023-04-15T07:00:09.535Z,990.00
2023-04-15T07:01:09.564Z,988.00
2023-04-15T07:02:09.583Z,987.00
2023-04-15T07:03:09.612Z,990.00
2023-04-15T07:04:09.622Z,990.00
2023-04-15T07:05:09.610Z,988.00
2023-04-15T07:06:09.600Z,992.00
2023-04-15T07:07:09.616Z,991.00
2023-04-15T07:08:09.644Z,991.00
2023-04-15T07:09:09.644Z,990.00
2023-04-15T07:10:09.656Z,986.00
2023-04-15T07:11:09.653Z,987.00
2023-04-15T07:12:09.664Z,984.00
2023-04-15T07:13:09.674Z,982.00
2023-04-15T07:14:09.679Z,980.00
2023-04-15T07:15:09.690Z,979.00
2023-04-15T07:16:09.730Z,981.00
2023-04-15T07:17:09.783Z,982.00
2023-04-15T07:18:09.723Z,979.00
2023-04-15T07:19:09.800Z,982.00
2023-04-15T07:20:09.873Z,984.00
2023-04-15T07:21:09.741Z,985.00
2023-04-15T07:22:09.742Z,984.00
2023-04-15T07:23:09.777Z,982.00
2023-04-15T07:24:09.763Z,979.00
2023-04-15T07:25:09.770Z,980.00
2023-04-15T07:26:09.777Z,980.00
2023-04-15T07:27:09.786Z,980.00
2023-04-15T07:28:09.784Z,980.00
2023-04-15T07:29:09.786Z,979.00
2023-04-15T07:30:09.818Z,975.00
2023-04-15T07:31:09.864Z,977.00
2023-04-15T07:32:09.800Z,974.00
2023-04-15T07:33:09.807Z,971.00
2023-04-15T07:34:09.823Z,967.00
2023-04-15T07:35:09.846Z,966.00
2023-04-15T07:36:09.818Z,964.00
2023-04-15T07:37:09.836Z,964.00
2023-04-15T07:38:09.845Z,961.00
2023-04-15T07:39:09.825Z,960.00
2023-04-15T07:40:09.826Z,960.00
2023-04-15T07:41:09.831Z,955.00
2023-04-15T07:42:09.861Z,956.00
2023-04-15T07:43:09.854Z,957.00
2023-04-15T07:44:09.853Z,957.00
2023-04-15T07:45:09.866Z,957.00
2023-04-15T07:46:09.901Z,959.00
2023-04-15T07:47:09.879Z,958.00
2023-04-15T07:48:09.878Z,956.00
2023-04-15T07:49:09.879Z,954.00
2023-04-15T07:50:10.872Z,953.00
2023-04-15T07:51:09.880Z,950.00
2023-04-15T07:52:09.890Z,951.00
2023-04-15T07:53:09.917Z,952.00
2023-04-15T07:54:09.903Z,953.00
2023-04-15T07:55:09.911Z,954.00
2023-04-15T07:56:09.929Z,953.00
2023-04-15T07:57:09.941Z,955.00
2023-04-15T07:58:09.920Z,954.00
2023-04-15T07:59:09.946Z,954.00
2023-04-15T08:00:09.941Z,954.00
2023-04-15T08:01:09.931Z,952.00
2023-04-15T08:02:10.029Z,950.00
2023-04-15T08:03:10.133Z,950.00
2023-04-15T08:04:10.122Z,947.00
2023-04-15T08:05:09.993Z,947.00
2023-04-15T08:06:09.967Z,946.00
2023-04-15T08:07:10.036Z,947.00
2023-04-15T08:08:09.981Z,945.00
2023-04-15T08:09:09.979Z,943.00
2023-04-15T08:10:09.986Z,943.00
2023-04-15T08:11:09.975Z,943.00
2023-04-15T08:12:09.972Z,940.00
2023-04-15T08:13:09.969Z,939.00
2023-04-15T08:14:09.976Z,938.00
2023-04-15T08:15:09.976Z,937.00
2023-04-15T08:16:10.000Z,938.00
2023-04-15T08:17:09.953Z,939.00
2023-04-15T08:18:09.963Z,940.00
2023-04-15T08:19:09.951Z,940.00
2023-04-15T08:20:09.961Z,940.00
2023-04-15T08:21:09.968Z,943.00
2023-04-15T08:22:10.471Z,943.00
2023-04-15T08:23:10.930Z,941.00
2023-04-15T08:24:09.907Z,940.00
2023-04-15T08:25:09.880Z,938.00
2023-04-15T08:26:09.852Z,939.00
2023-04-15T08:27:09.826Z,935.00
2023-04-15T08:28:09.787Z,934.00
2023-04-15T08:29:09.760Z,934.00
2023-04-15T08:30:09.717Z,933.00
2023-04-15T08:31:09.800Z,935.00
2023-04-15T08:32:09.654Z,933.00
2023-04-15T08:33:09.612Z,930.00
2023-04-15T08:34:09.573Z,926.00
2023-04-15T08:35:09.545Z,928.00
2023-04-15T08:36:09.506Z,928.00
2023-04-15T08:37:10.915Z,929.00
2023-04-15T08:38:09.440Z,927.00
2023-04-15T08:39:09.410Z,928.00
2023-04-15T08:40:09.390Z,925.00
2023-04-15T08:41:09.346Z,925.00
2023-04-15T08:42:09.321Z,923.00
2023-04-15T08:43:09.296Z,920.00
2023-04-15T08:44:09.255Z,922.00
2023-04-15T08:45:09.226Z,921.00
2023-04-15T08:46:09.198Z,915.00
2023-04-15T08:47:09.288Z,910.00
2023-04-15T08:48:09.151Z,910.00
2023-04-15T08:49:09.126Z,913.00
2023-04-15T08:50:09.091Z,915.00
2023-04-15T08:51:09.052Z,914.00
2023-04-15T08:52:09.034Z,914.00
2023-04-15T08:53:08.992Z,914.00
2023-04-15T08:54:08.961Z,914.00
2023-04-15T08:55:08.932Z,911.00
2023-04-15T08:56:08.900Z,913.00
2023-04-15T08:57:08.864Z,914.00
2023-04-15T08:58:08.833Z,914.00
2023-04-15T08:59:08.902Z,915.00
2023-04-15T09:00:08.782Z,920.00
2023-04-15T09:01:08.755Z,918.00
2023-04-15T09:02:08.757Z,919.00
2023-04-15T09:03:08.836Z,917.00
2023-04-15T09:04:08.719Z,915.00
2023-04-15T09:05:08.630Z,917.00
2023-04-15T09:06:08.581Z,918.00
2023-04-15T09:07:08.547Z,918.00
2023-04-15T09:08:08.575Z,916.00
2023-04-15T09:09:08.471Z,917.00
2023-04-15T09:10:08.450Z,918.00
2023-04-15T09:11:08.409Z,918.00
2023-04-15T09:12:08.364Z,918.00
2023-04-15T09:13:08.332Z,919.00
2023-04-15T09:14:08.377Z,917.00
2023-04-15T09:15:08.278Z,915.00
2023-04-15T09:16:08.520Z,914.00
2023-04-15T09:17:08.214Z,912.00
2023-04-15T09:18:08.193Z,913.00
2023-04-15T09:19:08.146Z,915.00
2023-04-15T09:20:08.119Z,915.00
2023-04-15T09:21:08.074Z,914.00
2023-04-15T09:22:08.052Z,914.00
2023-04-15T09:23:08.021Z,912.00
2023-04-15T09:24:08.004Z,907.00
2023-04-15T09:25:07.956Z,910.00
2023-04-15T09:26:07.928Z,910.00
2023-04-15T09:27:07.880Z,907.00
2023-04-15T09:28:07.872Z,905.00
2023-04-15T09:29:07.904Z,904.00
2023-04-15T09:30:07.802Z,904.00
2023-04-15T09:31:07.841Z,903.00
2023-04-15T09:32:07.709Z,902.00
2023-04-15T09:33:07.693Z,904.00
2023-04-15T09:34:07.650Z,903.00
2023-04-15T09:35:07.610Z,905.00
2023-04-15T09:36:08.413Z,906.00
2023-04-15T09:37:07.961Z,905.00
2023-04-15T09:38:07.602Z,901.00
2023-04-15T09:39:07.500Z,901.00
2023-04-15T09:40:07.472Z,900.00
2023-04-15T09:41:07.437Z,899.00
2023-04-15T09:42:07.400Z,898.00
2023-04-15T09:43:07.362Z,902.00
2023-04-15T09:44:07.319Z,902.00
2023-04-15T09:45:07.280Z,903.00
2023-04-15T09:46:07.315Z,903.00
2023-04-15T09:47:07.216Z,904.00
2023-04-15T09:48:07.268Z,906.00
2023-04-15T09:49:07.153Z,906.00
2023-04-15T09:50:07.424Z,906.00
2023-04-15T09:51:07.095Z,906.00
2023-04-15T09:52:07.104Z,902.00
2023-04-15T09:53:07.006Z,899.00
2023-04-15T09:54:06.956Z,897.00
2023-04-15T09:55:06.932Z,897.00
2023-04-15T09:56:06.886Z,896.00
2023-04-15T09:57:06.864Z,898.00
2023-04-15T09:58:06.818Z,899.00
2023-04-15T09:59:06.794Z,899.00
2023-04-15T10:00:06.745Z,900.00
2023-04-15T10:01:06.733Z,902.00
2023-04-15T10:02:06.751Z,900.00
2023-04-15T10:03:06.713Z,899.00
2023-04-15T10:04:07.100Z,901.00
2023-04-15T10:05:06.563Z,898.00
2023-04-15T10:06:06.529Z,896.00
2023-04-15T10:07:06.472Z,899.00
2023-04-15T10:08:06.427Z,897.00
2023-04-15T10:09:06.919Z,897.00
2023-04-15T10:10:06.373Z,899.00
2023-04-15T10:11:06.350Z,899.00
2023-04-15T10:12:06.301Z,901.00
2023-04-15T10:13:06.272Z,899.00
2023-04-15T10:14:06.228Z,896.00
2023-04-15T10:15:06.191Z,898.00
2023-04-15T10:16:06.222Z,898.00
2023-04-15T10:17:06.120Z,903.00
2023-04-15T10:18:06.115Z,902.00
2023-04-15T10:19:06.053Z,900.00
2023-04-15T10:20:06.017Z,901.00
2023-04-15T10:21:05.985Z,901.00
2023-04-15T10:22:05.958Z,903.00
2023-04-15T10:23:06.878Z,902.00
2023-04-15T10:24:05.871Z,904.00
2023-04-15T10:25:05.853Z,907.00
2023-04-15T10:26:05.812Z,906.00
2023-04-15T10:27:05.803Z,903.00
2023-04-15T10:28:05.745Z,901.00
2023-04-15T10:29:05.712Z,902.00
2023-04-15T10:30:05.680Z,899.00
2023-04-15T10:31:05.665Z,896.00
2023-04-15T10:32:05.593Z,894.00
2023-04-15T10:33:05.565Z,896.00
2023-04-15T10:34:05.566Z,900.00
2023-04-15T10:35:05.501Z,898.00
2023-04-15T10:36:05.479Z,893.00
2023-04-15T10:37:05.439Z,891.00
2023-04-15T10:38:05.403Z,888.00
2023-04-15T10:39:05.367Z,889.00
2023-04-15T10:40:05.344Z,891.00
2023-04-15T10:41:05.298Z,893.00
2023-04-15T10:42:05.256Z,894.00
2023-04-15T10:43:05.233Z,894.00
2023-04-15T10:44:05.425Z,895.00
2023-04-15T10:45:05.152Z,894.00
2023-04-15T10:46:05.161Z,891.00
2023-04-15T10:47:05.089Z,889.00
2023-04-15T10:48:05.082Z,889.00
2023-04-15T10:49:05.024Z,890.00
2023-04-15T10:50:05.008Z,892.00
2023-04-15T10:51:04.965Z,890.00
2023-04-15T10:52:04.911Z,891.00
2023-04-15T10:53:04.886Z,893.00
2023-04-15T10:54:05.023Z,891.00
2023-04-15T10:55:04.820Z,893.00
2023-04-15T10:56:04.791Z,892.00
2023-04-15T10:57:04.754Z,894.00
2023-04-15T10:58:04.727Z,893.00
2023-04-15T10:59:04.704Z,894.00
2023-04-15T11:00:04.667Z,893.00
2023-04-15T11:01:04.603Z,895.00
2023-04-15T11:02:04.610Z,893.00
2023-04-15T11:03:04.687Z,893.00
2023-04-15T11:04:04.699Z,893.00
2023-04-15T11:05:04.494Z,890.00
2023-04-15T11:06:04.404Z,889.00
2023-04-15T11:07:04.356Z,889.00
2023-04-15T11:08:04.314Z,892.00
2023-04-15T11:09:04.277Z,888.00
2023-04-15T11:10:04.240Z,890.00
2023-04-15T11:11:04.235Z,889.00
2023-04-15T11:12:04.155Z,888.00
2023-04-15T11:13:04.134Z,888.00
2023-04-15T11:14:04.230Z,886.00
2023-04-15T11:15:04.049Z,882.00
2023-04-15T11:16:04.066Z,882.00
2023-04-15T11:17:03.986Z,881.00
2023-04-15T11:18:03.982Z,878.00
2023-04-15T11:19:03.932Z,875.00
2023-04-15T11:20:03.882Z,877.00
2023-04-15T11:21:03.848Z,878.00
2023-04-15T11:22:03.806Z,882.00
2023-04-15T11:23:14.008Z,888.00
2023-04-15T11:24:05.010Z,887.00
2023-04-15T11:25:03.695Z,887.00
2023-04-15T11:26:03.682Z,886.00
2023-04-15T11:27:03.628Z,885.00
2023-04-15T11:28:03.599Z,886.00
2023-04-15T11:29:03.871Z,886.00
2023-04-15T11:30:03.502Z,886.00
2023-04-15T11:31:03.471Z,886.00
2023-04-15T11:32:03.485Z,889.00
2023-04-15T11:33:03.448Z,887.00
2023-04-15T11:34:03.373Z,884.00
2023-04-15T11:35:03.325Z,886.00
2023-04-15T11:36:03.293Z,887.00
2023-04-15T11:37:03.268Z,888.00
2023-04-15T11:38:03.205Z,887.00
2023-04-15T11:39:03.166Z,889.00
2023-04-15T11:40:03.173Z,890.00
2023-04-15T11:41:03.104Z,890.00
2023-04-15T11:42:03.063Z,890.00
2023-04-15T11:43:03.023Z,891.00
2023-04-15T11:44:03.163Z,890.00
2023-04-15T11:45:02.955Z,889.00
2023-04-15T11:46:02.956Z,887.00
2023-04-15T11:47:02.876Z,883.00
2023-04-15T11:48:02.848Z,884.00
2023-04-15T11:49:02.788Z,885.00
2023-04-15T11:50:02.750Z,883.00
2023-04-15T11:51:02.767Z,879.00
2023-04-15T11:52:02.677Z,880.00
2023-04-15T11:53:02.646Z,879.00
2023-04-15T11:54:02.929Z,883.00
2023-04-15T11:55:02.565Z,885.00
2023-04-15T11:56:02.541Z,884.00
2023-04-15T11:57:02.492Z,886.00
2023-04-15T11:58:02.452Z,886.00
2023-04-15T11:59:02.449Z,886.00
2023-04-15T12:00:02.368Z,882.00
2023-04-15T12:01:02.367Z,881.00
2023-04-15T12:02:02.350Z,880.00
2023-04-15T12:03:02.501Z,881.00
2023-04-15T12:04:02.586Z,880.00
2023-04-15T12:05:02.239Z,881.00
2023-04-15T12:06:02.187Z,886.00
2023-04-15T12:07:02.128Z,888.00
2023-04-15T12:08:02.880Z,887.00
2023-04-15T12:09:02.063Z,889.00
2023-04-15T12:10:02.062Z,886.00
2023-04-15T12:11:01.987Z,884.00
2023-04-15T12:12:01.946Z,884.00
2023-04-15T12:13:01.913Z,880.00
2023-04-15T12:14:02.151Z,879.00
2023-04-15T12:15:01.870Z,878.00